sensor_id;sensor_type;location;lat;lon;timestamp;temperature;humidity
64715;DHT22;51144;53.002;6.506;2022-10-13T11:37:01;13.70;99.90
64715;DHT22;51144;53.002;6.506;2022-10-13T11:39:35;13.70;99.90
64715;DHT22;51144;53.002;6.506;2022-10-13T11:44:53;13.70;99.90
64715;DHT22;51144;53.002;6.506;2022-10-13T11:53:06;13.90;99.90
64715;DHT22;51144;53.002;6.506;2022-10-13T11:55:52;14.00;99.90
64715;DHT22;51144;53.002;6.506;2022-10-13T11:58:26;14.00;99.90
64715;DHT22;51144;53.002;6.506;2022-10-13T12:00:53;14.00;99.90
64715;DHT22;51144;53.002;6.506;2022-10-13T12:03:32;14.00;99.90
64715;DHT22;51144;53.002;6.506;2022-10-13T12:06:02;14.00;99.90
64715;DHT22;51144;53.002;6.506;2022-10-13T12:08:31;14.00;99.90
64715;DHT22;51144;53.002;6.506;2022-10-13T12:10:57;14.00;99.90
64715;DHT22;51144;53.002;6.506;2022-10-13T12:13:29;13.90;99.90
64715;DHT22;51144;53.002;6.506;2022-10-13T12:16:01;13.90;99.90
64715;DHT22;51144;53.002;6.506;2022-10-13T12:18:32;13.90;99.90
64715;DHT22;51144;53.002;6.506;2022-10-13T12:21:07;13.90;99.90
64715;DHT22;51144;53.002;6.506;2022-10-13T12:23:34;13.90;99.90
64715;DHT22;51144;53.002;6.506;2022-10-13T12:26:00;13.90;99.90
64715;DHT22;51144;53.002;6.506;2022-10-13T12:28:48;13.90;99.90
64715;DHT22;51144;53.002;6.506;2022-10-13T12:31:24;13.90;99.90
64715;DHT22;51144;53.002;6.506;2022-10-13T12:34:00;13.90;99.90
64715;DHT22;51144;53.002;6.506;2022-10-13T12:36:31;14.00;99.90
64715;DHT22;51144;53.002;6.506;2022-10-13T12:39:03;14.00;99.90
64715;DHT22;51144;53.002;6.506;2022-10-13T12:41:35;14.00;99.90
64715;DHT22;51144;53.002;6.506;2022-10-13T12:44:01;13.90;99.90
64715;DHT22;51144;53.002;6.506;2022-10-13T12:46:42;13.90;99.90
64715;DHT22;51144;53.002;6.506;2022-10-13T12:49:19;13.90;99.90
64715;DHT22;51144;53.002;6.506;2022-10-13T12:51:54;13.90;99.90
64715;DHT22;51144;53.002;6.506;2022-10-13T12:54:26;13.90;99.90
64715;DHT22;51144;53.002;6.506;2022-10-13T12:56:56;13.90;99.90
64715;DHT22;51144;53.002;6.506;2022-10-13T12:59:24;13.90;99.90
64715;DHT22;51144;53.002;6.506;2022-10-13T13:02:03;14.00;99.90
64715;DHT22;51144;53.002;6.506;2022-10-13T13:07:04;13.90;99.90
64715;DHT22;51144;53.002;6.506;2022-10-13T13:09:34;13.90;99.90
64715;DHT22;51144;53.002;6.506;2022-10-13T13:14:39;13.90;99.90
64715;DHT22;51144;53.002;6.506;2022-10-13T13:17:20;13.90;99.90
64715;DHT22;51144;53.002;6.506;2022-10-13T13:19:49;13.90;99.90
64715;DHT22;51144;53.002;6.506;2022-10-13T13:22:14;14.00;99.90
64715;DHT22;51144;53.002;6.506;2022-10-13T13:24:40;14.00;99.90
64715;DHT22;51144;53.002;6.506;2022-10-13T13:27:16;14.10;99.90
64715;DHT22;51144;53.002;6.506;2022-10-13T13:29:43;14.10;99.90
64715;DHT22;51144;53.002;6.506;2022-10-13T13:32:14;14.10;99.90
64715;DHT22;51144;53.002;6.506;2022-10-13T13:34:39;14.20;99.90
64715;DHT22;51144;53.002;6.506;2022-10-13T13:39:52;14.20;99.90
64715;DHT22;51144;53.002;6.506;2022-10-13T13:42:17;14.30;99.90
64715;DHT22;51144;53.002;6.506;2022-10-13T13:44:43;14.30;99.90
64715;DHT22;51144;53.002;6.506;2022-10-13T13:47:18;14.40;99.90
64715;DHT22;51144;53.002;6.506;2022-10-13T13:49:45;14.40;99.90
64715;DHT22;51144;53.002;6.506;2022-10-13T13:52:11;14.40;99.90
64715;DHT22;51144;53.002;6.506;2022-10-13T13:54:37;14.40;99.90
64715;DHT22;51144;53.002;6.506;2022-10-13T13:57:03;14.50;99.90
64715;DHT22;51144;53.002;6.506;2022-10-13T13:59:28;14.50;99.90
64715;DHT22;51144;53.002;6.506;2022-10-13T14:01:54;14.50;99.90
64715;DHT22;51144;53.002;6.506;2022-10-13T14:04:19;14.50;99.90
64715;DHT22;51144;53.002;6.506;2022-10-13T14:06:45;14.50;99.90
64715;DHT22;51144;53.002;6.506;2022-10-13T14:09:11;14.60;99.90
64715;DHT22;51144;53.002;6.506;2022-10-13T14:11:36;14.50;99.90
64715;DHT22;51144;53.002;6.506;2022-10-13T14:14:02;14.50;99.90
64715;DHT22;51144;53.002;6.506;2022-10-13T14:16:28;14.50;99.90
64715;DHT22;51144;53.002;6.506;2022-10-13T14:18:55;14.50;99.90
64715;DHT22;51144;53.002;6.506;2022-10-13T14:21:21;14.50;99.90
64715;DHT22;51144;53.002;6.506;2022-10-13T14:23:46;14.50;99.90
64715;DHT22;51144;53.002;6.506;2022-10-13T14:26:13;14.50;99.90
64715;DHT22;51144;53.002;6.506;2022-10-13T14:28:43;14.50;99.90
64715;DHT22;51144;53.002;6.506;2022-10-13T14:31:09;14.50;99.90
64715;DHT22;51144;53.002;6.506;2022-10-13T14:33:36;14.50;99.90
64715;DHT22;51144;53.002;6.506;2022-10-13T14:36:04;14.60;99.90
64715;DHT22;51144;53.002;6.506;2022-10-13T14:38:30;14.60;99.90
64715;DHT22;51144;53.002;6.506;2022-10-13T14:41:01;14.60;99.90
64715;DHT22;51144;53.002;6.506;2022-10-13T14:43:27;14.60;99.90
64715;DHT22;51144;53.002;6.506;2022-10-13T14:45:53;14.70;99.90
64715;DHT22;51144;53.002;6.506;2022-10-13T14:48:20;14.60;99.90
64715;DHT22;51144;53.002;6.506;2022-10-13T14:50:45;14.60;99.90
64715;DHT22;51144;53.002;6.506;2022-10-13T14:53:11;14.60;99.90
64715;DHT22;51144;53.002;6.506;2022-10-13T14:55:43;14.60;99.90
64715;DHT22;51144;53.002;6.506;2022-10-13T14:58:10;14.50;99.90
64715;DHT22;51144;53.002;6.506;2022-10-13T15:00:36;14.50;99.90
64715;DHT22;51144;53.002;6.506;2022-10-13T15:03:03;14.50;99.90
64715;DHT22;51144;53.002;6.506;2022-10-13T15:05:29;14.50;99.90
64715;DHT22;51144;53.002;6.506;2022-10-13T15:07:55;14.50;99.90
64715;DHT22;51144;53.002;6.506;2022-10-13T15:10:20;14.50;99.90
64715;DHT22;51144;53.002;6.506;2022-10-13T15:12:46;14.50;99.90
64715;DHT22;51144;53.002;6.506;2022-10-13T15:15:12;14.50;99.90
64715;DHT22;51144;53.002;6.506;2022-10-13T15:17:37;14.50;99.90
64715;DHT22;51144;53.002;6.506;2022-10-13T15:20:04;14.50;99.90
64715;DHT22;51144;53.002;6.506;2022-10-13T15:22:30;14.50;99.90
64715;DHT22;51144;53.002;6.506;2022-10-13T15:24:55;14.50;99.90
64715;DHT22;51144;53.002;6.506;2022-10-13T15:27:22;14.50;99.90
64715;DHT22;51144;53.002;6.506;2022-10-13T15:29:47;14.60;99.90
64715;DHT22;51144;53.002;6.506;2022-10-13T15:32:16;14.60;99.90
64715;DHT22;51144;53.002;6.506;2022-10-13T15:34:43;14.60;99.90
64715;DHT22;51144;53.002;6.506;2022-10-13T15:37:09;14.50;99.90
64715;DHT22;51144;53.002;6.506;2022-10-13T15:39:35;14.50;99.90
64715;DHT22;51144;53.002;6.506;2022-10-13T15:42:02;14.50;99.90
64715;DHT22;51144;53.002;6.506;2022-10-13T15:44:28;14.50;99.90
64715;DHT22;51144;53.002;6.506;2022-10-13T15:46:56;14.50;99.90
64715;DHT22;51144;53.002;6.506;2022-10-13T15:49:22;14.50;99.90
64715;DHT22;51144;53.002;6.506;2022-10-13T15:51:49;14.50;99.90
64715;DHT22;51144;53.002;6.506;2022-10-13T15:54:15;14.40;99.90
64715;DHT22;51144;53.002;6.506;2022-10-13T15:56:41;14.40;99.90
64715;DHT22;51144;53.002;6.506;2022-10-13T15:59:06;14.30;99.90
64715;DHT22;51144;53.002;6.506;2022-10-13T16:01:32;14.30;99.90
64715;DHT22;51144;53.002;6.506;2022-10-13T16:03:58;14.20;99.90
64715;DHT22;51144;53.002;6.506;2022-10-13T16:06:24;14.20;99.90
64715;DHT22;51144;53.002;6.506;2022-10-13T16:08:51;14.10;99.90
64715;DHT22;51144;53.002;6.506;2022-10-13T16:11:19;14.10;99.90
64715;DHT22;51144;53.002;6.506;2022-10-13T16:13:50;14.10;99.90
64715;DHT22;51144;53.002;6.506;2022-10-13T16:16:16;14.10;99.90
64715;DHT22;51144;53.002;6.506;2022-10-13T16:18:43;14.00;99.90
64715;DHT22;51144;53.002;6.506;2022-10-13T16:21:13;14.00;99.90
64715;DHT22;51144;53.002;6.506;2022-10-13T16:23:39;14.00;99.90
64715;DHT22;51144;53.002;6.506;2022-10-13T16:26:05;14.00;99.90
64715;DHT22;51144;53.002;6.506;2022-10-13T16:28:31;13.90;99.90
64715;DHT22;51144;53.002;6.506;2022-10-13T16:31:05;13.90;99.90
64715;DHT22;51144;53.002;6.506;2022-10-13T16:33:35;13.90;99.90
64715;DHT22;51144;53.002;6.506;2022-10-13T16:36:06;13.90;99.90
64715;DHT22;51144;53.002;6.506;2022-10-13T16:38:32;13.80;99.90
64715;DHT22;51144;53.002;6.506;2022-10-13T16:41:01;13.80;99.90
64715;DHT22;51144;53.002;6.506;2022-10-13T16:43:28;13.80;99.90
64715;DHT22;51144;53.002;6.506;2022-10-13T16:45:59;13.80;99.90
64715;DHT22;51144;53.002;6.506;2022-10-13T16:48:25;13.70;99.90
64715;DHT22;51144;53.002;6.506;2022-10-13T16:50:51;13.70;99.90
64715;DHT22;51144;53.002;6.506;2022-10-13T16:53:17;13.70;99.90
64715;DHT22;51144;53.002;6.506;2022-10-13T16:55:43;13.70;99.90
64715;DHT22;51144;53.002;6.506;2022-10-13T16:58:09;13.70;99.90
64715;DHT22;51144;53.002;6.506;2022-10-13T17:00:36;13.60;99.90
64715;DHT22;51144;53.002;6.506;2022-10-13T17:03:01;13.60;99.90
64715;DHT22;51144;53.002;6.506;2022-10-13T17:05:27;13.60;99.90
64715;DHT22;51144;53.002;6.506;2022-10-13T17:07:53;13.60;99.90
64715;DHT22;51144;53.002;6.506;2022-10-13T17:10:19;13.50;99.90
64715;DHT22;51144;53.002;6.506;2022-10-13T17:12:44;13.50;99.90
64715;DHT22;51144;53.002;6.506;2022-10-13T17:15:10;13.50;99.90
64715;DHT22;51144;53.002;6.506;2022-10-13T17:17:36;13.40;99.90
64715;DHT22;51144;53.002;6.506;2022-10-13T17:20:02;13.40;99.90
64715;DHT22;51144;53.002;6.506;2022-10-13T17:22:28;13.40;99.90
64715;DHT22;51144;53.002;6.506;2022-10-13T17:24:54;13.40;99.90
64715;DHT22;51144;53.002;6.506;2022-10-13T17:27:19;13.40;99.90
64715;DHT22;51144;53.002;6.506;2022-10-13T17:29:45;13.40;99.90
64715;DHT22;51144;53.002;6.506;2022-10-13T17:32:11;13.40;99.90
64715;DHT22;51144;53.002;6.506;2022-10-13T17:34:37;13.30;99.90
64715;DHT22;51144;53.002;6.506;2022-10-13T17:37:04;13.30;99.90
64715;DHT22;51144;53.002;6.506;2022-10-13T17:39:30;13.30;99.90
64715;DHT22;51144;53.002;6.506;2022-10-13T17:41:56;13.30;99.90
64715;DHT22;51144;53.002;6.506;2022-10-13T17:44:22;13.30;99.90
64715;DHT22;51144;53.002;6.506;2022-10-13T17:46:48;13.30;99.90
64715;DHT22;51144;53.002;6.506;2022-10-13T17:49:14;13.30;99.90
64715;DHT22;51144;53.002;6.506;2022-10-13T17:51:41;13.20;99.90
64715;DHT22;51144;53.002;6.506;2022-10-13T17:54:07;13.20;99.90
64715;DHT22;51144;53.002;6.506;2022-10-13T17:56:34;13.20;99.90
64715;DHT22;51144;53.002;6.506;2022-10-13T17:58:59;13.20;99.90
64715;DHT22;51144;53.002;6.506;2022-10-13T18:01:32;13.20;99.90
64715;DHT22;51144;53.002;6.506;2022-10-13T18:04:00;13.10;99.90
64715;DHT22;51144;53.002;6.506;2022-10-13T18:06:27;13.10;99.90
64715;DHT22;51144;53.002;6.506;2022-10-13T18:08:53;13.10;99.90
64715;DHT22;51144;53.002;6.506;2022-10-13T18:11:20;13.10;99.90
64715;DHT22;51144;53.002;6.506;2022-10-13T18:13:46;13.10;99.90
64715;DHT22;51144;53.002;6.506;2022-10-13T18:16:14;13.10;99.90
64715;DHT22;51144;53.002;6.506;2022-10-13T18:18:41;13.10;99.90
64715;DHT22;51144;53.002;6.506;2022-10-13T18:21:10;13.10;99.90
64715;DHT22;51144;53.002;6.506;2022-10-13T18:23:37;13.10;99.90
64715;DHT22;51144;53.002;6.506;2022-10-13T18:26:05;13.10;99.90
64715;DHT22;51144;53.002;6.506;2022-10-13T18:28:33;13.10;99.90
64715;DHT22;51144;53.002;6.506;2022-10-13T18:31:25;13.00;99.90
64715;DHT22;51144;53.002;6.506;2022-10-13T18:33:50;13.00;99.90
64715;DHT22;51144;53.002;6.506;2022-10-13T18:38:46;13.00;99.90
64715;DHT22;51144;53.002;6.506;2022-10-13T18:41:13;13.00;99.90
64715;DHT22;51144;53.002;6.506;2022-10-13T18:43:38;13.00;99.90
64715;DHT22;51144;53.002;6.506;2022-10-13T18:46:04;13.00;99.90
64715;DHT22;51144;53.002;6.506;2022-10-13T18:48:30;13.00;99.90
64715;DHT22;51144;53.002;6.506;2022-10-13T18:51:02;13.00;99.90
64715;DHT22;51144;53.002;6.506;2022-10-13T18:53:27;13.00;99.90
64715;DHT22;51144;53.002;6.506;2022-10-13T18:56:01;13.00;99.90
64715;DHT22;51144;53.002;6.506;2022-10-13T18:58:28;13.00;99.90
64715;DHT22;51144;53.002;6.506;2022-10-13T19:01:01;12.90;99.90
64715;DHT22;51144;53.002;6.506;2022-10-13T19:03:27;12.90;99.90
64715;DHT22;51144;53.002;6.506;2022-10-13T19:05:53;12.90;99.90
64715;DHT22;51144;53.002;6.506;2022-10-13T19:08:18;12.90;99.90
64715;DHT22;51144;53.002;6.506;2022-10-13T19:10:44;12.80;99.90
64715;DHT22;51144;53.002;6.506;2022-10-13T19:13:10;12.80;99.90
64715;DHT22;51144;53.002;6.506;2022-10-13T19:15:35;12.80;99.90
64715;DHT22;51144;53.002;6.506;2022-10-13T19:18:01;12.80;99.90
64715;DHT22;51144;53.002;6.506;2022-10-13T19:20:27;12.80;99.90
64715;DHT22;51144;53.002;6.506;2022-10-13T19:22:52;12.70;99.90
64715;DHT22;51144;53.002;6.506;2022-10-13T19:25:18;12.70;99.90
64715;DHT22;51144;53.002;6.506;2022-10-13T19:27:43;12.70;99.90
64715;DHT22;51144;53.002;6.506;2022-10-13T19:30:09;12.70;99.90
64715;DHT22;51144;53.002;6.506;2022-10-13T19:32:37;12.70;99.90
64715;DHT22;51144;53.002;6.506;2022-10-13T19:35:03;12.60;99.90
64715;DHT22;51144;53.002;6.506;2022-10-13T19:37:29;12.60;99.90
64715;DHT22;51144;53.002;6.506;2022-10-13T19:39:57;12.60;99.90
64715;DHT22;51144;53.002;6.506;2022-10-13T19:42:22;12.60;99.90
64715;DHT22;51144;53.002;6.506;2022-10-13T19:44:48;12.60;99.90
64715;DHT22;51144;53.002;6.506;2022-10-13T19:47:13;12.60;99.90
64715;DHT22;51144;53.002;6.506;2022-10-13T19:49:39;12.60;99.90
64715;DHT22;51144;53.002;6.506;2022-10-13T19:52:05;12.60;99.90
64715;DHT22;51144;53.002;6.506;2022-10-13T19:54:30;12.60;99.90
64715;DHT22;51144;53.002;6.506;2022-10-13T19:57:00;12.50;99.90
64715;DHT22;51144;53.002;6.506;2022-10-13T19:59:26;12.50;99.90
64715;DHT22;51144;53.002;6.506;2022-10-13T20:01:52;12.50;99.90
64715;DHT22;51144;53.002;6.506;2022-10-13T20:04:18;12.50;99.90
64715;DHT22;51144;53.002;6.506;2022-10-13T20:06:46;12.50;99.90
64715;DHT22;51144;53.002;6.506;2022-10-13T20:09:12;12.50;99.90
64715;DHT22;51144;53.002;6.506;2022-10-13T20:11:37;12.50;99.90
64715;DHT22;51144;53.002;6.506;2022-10-13T20:14:03;12.50;99.90
64715;DHT22;51144;53.002;6.506;2022-10-13T20:16:29;12.50;99.90
64715;DHT22;51144;53.002;6.506;2022-10-13T20:18:56;12.50;99.90
64715;DHT22;51144;53.002;6.506;2022-10-13T20:21:24;12.50;99.90
64715;DHT22;51144;53.002;6.506;2022-10-13T20:23:50;12.50;99.90
64715;DHT22;51144;53.002;6.506;2022-10-13T20:26:16;12.50;99.90
64715;DHT22;51144;53.002;6.506;2022-10-13T20:28:44;12.50;99.90
64715;DHT22;51144;53.002;6.506;2022-10-13T20:31:11;12.50;99.90
64715;DHT22;51144;53.002;6.506;2022-10-13T20:33:37;12.50;99.90
64715;DHT22;51144;53.002;6.506;2022-10-13T20:36:05;12.60;99.90
64715;DHT22;51144;53.002;6.506;2022-10-13T20:38:32;12.60;99.90
64715;DHT22;51144;53.002;6.506;2022-10-13T20:41:21;12.60;99.90
64715;DHT22;51144;53.002;6.506;2022-10-13T20:43:48;12.60;99.90
64715;DHT22;51144;53.002;6.506;2022-10-13T20:46:15;12.60;99.90
64715;DHT22;51144;53.002;6.506;2022-10-13T20:48:41;12.60;99.90
64715;DHT22;51144;53.002;6.506;2022-10-13T20:51:10;12.60;99.90
64715;DHT22;51144;53.002;6.506;2022-10-13T20:53:37;12.60;99.90
64715;DHT22;51144;53.002;6.506;2022-10-13T20:56:05;12.50;99.90
64715;DHT22;51144;53.002;6.506;2022-10-13T20:58:32;12.50;99.90
64715;DHT22;51144;53.002;6.506;2022-10-13T21:00:58;12.60;99.90
64715;DHT22;51144;53.002;6.506;2022-10-13T21:03:24;12.60;99.90
64715;DHT22;51144;53.002;6.506;2022-10-13T21:05:52;12.60;99.90
64715;DHT22;51144;53.002;6.506;2022-10-13T21:08:19;12.60;99.90
64715;DHT22;51144;53.002;6.506;2022-10-13T21:10:46;12.50;99.90
64715;DHT22;51144;53.002;6.506;2022-10-13T21:13:13;12.50;99.90
64715;DHT22;51144;53.002;6.506;2022-10-13T21:15:40;12.50;99.90
64715;DHT22;51144;53.002;6.506;2022-10-13T21:18:07;12.50;99.90
64715;DHT22;51144;53.002;6.506;2022-10-13T21:20:34;12.50;99.90
64715;DHT22;51144;53.002;6.506;2022-10-13T21:23:02;12.60;99.90
64715;DHT22;51144;53.002;6.506;2022-10-13T21:25:28;12.50;99.90
64715;DHT22;51144;53.002;6.506;2022-10-13T21:27:54;12.50;99.90
64715;DHT22;51144;53.002;6.506;2022-10-13T21:30:24;12.50;99.90
64715;DHT22;51144;53.002;6.506;2022-10-13T21:32:49;12.50;99.90
64715;DHT22;51144;53.002;6.506;2022-10-13T21:35:15;12.50;99.90
64715;DHT22;51144;53.002;6.506;2022-10-13T21:37:41;12.50;99.90
64715;DHT22;51144;53.002;6.506;2022-10-13T21:40:07;12.40;99.90
64715;DHT22;51144;53.002;6.506;2022-10-13T21:42:33;12.40;99.90
64715;DHT22;51144;53.002;6.506;2022-10-13T21:44:59;12.40;99.90
64715;DHT22;51144;53.002;6.506;2022-10-13T21:47:29;12.40;99.90
64715;DHT22;51144;53.002;6.506;2022-10-13T21:49:55;12.40;99.90
64715;DHT22;51144;53.002;6.506;2022-10-13T21:52:20;12.40;99.90
64715;DHT22;51144;53.002;6.506;2022-10-13T21:54:48;12.40;99.90
64715;DHT22;51144;53.002;6.506;2022-10-13T21:57:14;12.40;99.90
64715;DHT22;51144;53.002;6.506;2022-10-13T21:59:40;12.40;99.90
64715;DHT22;51144;53.002;6.506;2022-10-13T22:02:05;12.40;99.90
64715;DHT22;51144;53.002;6.506;2022-10-13T22:04:31;12.40;99.90
64715;DHT22;51144;53.002;6.506;2022-10-13T22:06:57;12.40;99.90
64715;DHT22;51144;53.002;6.506;2022-10-13T22:09:22;12.40;99.90
64715;DHT22;51144;53.002;6.506;2022-10-13T22:11:48;12.40;99.90
64715;DHT22;51144;53.002;6.506;2022-10-13T22:14:14;12.40;99.90
64715;DHT22;51144;53.002;6.506;2022-10-13T22:16:50;12.30;99.90
64715;DHT22;51144;53.002;6.506;2022-10-13T22:19:18;12.30;99.90
64715;DHT22;51144;53.002;6.506;2022-10-13T22:21:46;12.30;99.90
64715;DHT22;51144;53.002;6.506;2022-10-13T22:24:20;12.30;99.90
64715;DHT22;51144;53.002;6.506;2022-10-13T22:26:47;12.30;99.90
64715;DHT22;51144;53.002;6.506;2022-10-13T22:29:15;12.30;99.90
64715;DHT22;51144;53.002;6.506;2022-10-13T22:31:41;12.30;99.90
64715;DHT22;51144;53.002;6.506;2022-10-13T22:34:08;12.30;99.90
64715;DHT22;51144;53.002;6.506;2022-10-13T22:36:33;12.30;99.90
64715;DHT22;51144;53.002;6.506;2022-10-13T22:39:01;12.30;99.90
64715;DHT22;51144;53.002;6.506;2022-10-13T22:41:27;12.20;99.90
64715;DHT22;51144;53.002;6.506;2022-10-13T22:43:54;12.20;99.90
64715;DHT22;51144;53.002;6.506;2022-10-13T22:46:22;12.20;99.90
64715;DHT22;51144;53.002;6.506;2022-10-13T22:48:49;12.20;99.90
64715;DHT22;51144;53.002;6.506;2022-10-13T22:51:17;12.20;99.90
64715;DHT22;51144;53.002;6.506;2022-10-13T22:53:44;12.20;99.90
64715;DHT22;51144;53.002;6.506;2022-10-13T22:56:21;12.20;99.90
64715;DHT22;51144;53.002;6.506;2022-10-13T22:58:51;12.10;99.90
64715;DHT22;51144;53.002;6.506;2022-10-13T23:01:18;12.10;99.90
64715;DHT22;51144;53.002;6.506;2022-10-13T23:03:51;12.10;99.90
64715;DHT22;51144;53.002;6.506;2022-10-13T23:06:19;12.10;99.90
64715;DHT22;51144;53.002;6.506;2022-10-13T23:08:45;12.10;99.90
64715;DHT22;51144;53.002;6.506;2022-10-13T23:11:11;12.10;99.90
64715;DHT22;51144;53.002;6.506;2022-10-13T23:13:36;12.10;99.90
64715;DHT22;51144;53.002;6.506;2022-10-13T23:16:08;12.00;99.90
64715;DHT22;51144;53.002;6.506;2022-10-13T23:18:34;12.00;99.90
64715;DHT22;51144;53.002;6.506;2022-10-13T23:21:06;12.00;99.90
64715;DHT22;51144;53.002;6.506;2022-10-13T23:23:33;12.00;99.90
64715;DHT22;51144;53.002;6.506;2022-10-13T23:26:13;12.00;99.90
64715;DHT22;51144;53.002;6.506;2022-10-13T23:28:39;12.00;99.90
64715;DHT22;51144;53.002;6.506;2022-10-13T23:31:09;12.00;99.90
64715;DHT22;51144;53.002;6.506;2022-10-13T23:33:35;12.00;99.90
64715;DHT22;51144;53.002;6.506;2022-10-13T23:36:02;12.00;99.90
64715;DHT22;51144;53.002;6.506;2022-10-13T23:38:29;12.00;99.90
64715;DHT22;51144;53.002;6.506;2022-10-13T23:41:08;12.00;99.90
64715;DHT22;51144;53.002;6.506;2022-10-13T23:43:34;12.00;99.90
64715;DHT22;51144;53.002;6.506;2022-10-13T23:46:00;12.00;99.90
64715;DHT22;51144;53.002;6.506;2022-10-13T23:48:26;12.00;99.90
64715;DHT22;51144;53.002;6.506;2022-10-13T23:50:52;11.90;99.90
64715;DHT22;51144;53.002;6.506;2022-10-13T23:53:18;11.90;99.90
64715;DHT22;51144;53.002;6.506;2022-10-13T23:55:43;11.90;99.90
64715;DHT22;51144;53.002;6.506;2022-10-13T23:58:09;11.90;99.90
